sensor_id;sensor_type;location;lat;lon;timestamp;P1;durP1;ratioP1;P2;durP2;ratioP2
15381;SDS011;7789;51.364;12.358;2024-01-15T00:03:35;12.47;;;7.00;;
15381;SDS011;7789;51.364;12.358;2024-01-15T00:08:39;11.77;;;7.10;;
15381;SDS011;7789;51.364;12.358;2024-01-15T00:13:43;9.03;;;6.73;;
15381;SDS011;7789;51.364;12.358;2024-01-15T00:18:46;10.50;;;6.90;;
15381;SDS011;7789;51.364;12.358;2024-01-15T00:23:51;10.70;;;6.87;;
15381;SDS011;7789;51.364;12.358;2024-01-15T00:28:55;11.13;;;7.50;;
15381;SDS011;7789;51.364;12.358;2024-01-15T00:33:59;11.40;;;7.67;;
15381;SDS011;7789;51.364;12.358;2024-01-15T00:39:04;11.70;;;7.10;;
15381;SDS011;7789;51.364;12.358;2024-01-15T00:44:07;11.77;;;7.83;;
15381;SDS011;7789;51.364;12.358;2024-01-15T00:49:11;12.47;;;7.93;;
15381;SDS011;7789;51.364;12.358;2024-01-15T00:54:16;10.53;;;6.77;;
15381;SDS011;7789;51.364;12.358;2024-01-15T00:59:20;9.07;;;6.63;;
15381;SDS011;7789;51.364;12.358;2024-01-15T01:04:24;14.07;;;8.07;;
15381;SDS011;7789;51.364;12.358;2024-01-15T01:09:30;10.80;;;7.37;;
15381;SDS011;7789;51.364;12.358;2024-01-15T01:14:34;9.53;;;6.90;;
15381;SDS011;7789;51.364;12.358;2024-01-15T01:19:40;10.03;;;7.37;;
15381;SDS011;7789;51.364;12.358;2024-01-15T01:24:48;10.93;;;7.47;;
15381;SDS011;7789;51.364;12.358;2024-01-15T01:29:52;10.87;;;7.47;;
15381;SDS011;7789;51.364;12.358;2024-01-15T01:35:07;10.03;;;7.20;;
15381;SDS011;7789;51.364;12.358;2024-01-15T01:40:13;10.50;;;7.20;;
15381;SDS011;7789;51.364;12.358;2024-01-15T01:45:19;10.20;;;6.83;;
15381;SDS011;7789;51.364;12.358;2024-01-15T01:50:30;10.80;;;7.20;;
15381;SDS011;7789;51.364;12.358;2024-01-15T01:55:40;12.07;;;7.17;;
15381;SDS011;7789;51.364;12.358;2024-01-15T02:00:44;9.23;;;6.67;;
15381;SDS011;7789;51.364;12.358;2024-01-15T02:05:54;9.80;;;6.63;;
15381;SDS011;7789;51.364;12.358;2024-01-15T02:11:00;10.93;;;6.80;;
15381;SDS011;7789;51.364;12.358;2024-01-15T02:16:04;12.20;;;7.97;;
15381;SDS011;7789;51.364;12.358;2024-01-15T02:21:07;10.40;;;6.90;;
15381;SDS011;7789;51.364;12.358;2024-01-15T02:26:12;9.83;;;7.30;;
15381;SDS011;7789;51.364;12.358;2024-01-15T02:31:18;10.03;;;6.63;;
15381;SDS011;7789;51.364;12.358;2024-01-15T02:36:21;9.30;;;6.70;;
15381;SDS011;7789;51.364;12.358;2024-01-15T02:41:26;9.93;;;5.93;;
15381;SDS011;7789;51.364;12.358;2024-01-15T02:46:30;9.80;;;6.40;;
15381;SDS011;7789;51.364;12.358;2024-01-15T02:51:33;11.10;;;6.87;;
15381;SDS011;7789;51.364;12.358;2024-01-15T02:56:38;11.57;;;6.77;;
15381;SDS011;7789;51.364;12.358;2024-01-15T03:01:41;11.07;;;6.53;;
15381;SDS011;7789;51.364;12.358;2024-01-15T03:06:45;11.37;;;6.83;;
15381;SDS011;7789;51.364;12.358;2024-01-15T03:11:50;9.93;;;6.90;;
15381;SDS011;7789;51.364;12.358;2024-01-15T03:16:54;10.03;;;6.83;;
15381;SDS011;7789;51.364;12.358;2024-01-15T03:21:57;10.07;;;6.23;;
15381;SDS011;7789;51.364;12.358;2024-01-15T03:27:04;11.03;;;6.60;;
15381;SDS011;7789;51.364;12.358;2024-01-15T03:32:07;10.67;;;6.43;;
15381;SDS011;7789;51.364;12.358;2024-01-15T03:37:11;8.43;;;6.27;;
15381;SDS011;7789;51.364;12.358;2024-01-15T03:42:15;9.77;;;6.30;;
15381;SDS011;7789;51.364;12.358;2024-01-15T03:47:19;9.40;;;6.67;;
15381;SDS011;7789;51.364;12.358;2024-01-15T03:52:22;9.40;;;6.17;;
15381;SDS011;7789;51.364;12.358;2024-01-15T03:57:27;10.47;;;6.90;;
15381;SDS011;7789;51.364;12.358;2024-01-15T04:02:31;9.77;;;6.27;;
15381;SDS011;7789;51.364;12.358;2024-01-15T04:07:34;8.10;;;5.37;;
15381;SDS011;7789;51.364;12.358;2024-01-15T04:12:39;10.20;;;6.60;;
15381;SDS011;7789;51.364;12.358;2024-01-15T04:17:42;7.67;;;5.30;;
15381;SDS011;7789;51.364;12.358;2024-01-15T04:22:46;9.67;;;5.70;;
15381;SDS011;7789;51.364;12.358;2024-01-15T04:27:50;7.60;;;5.00;;
15381;SDS011;7789;51.364;12.358;2024-01-15T04:32:54;8.17;;;5.47;;
15381;SDS011;7789;51.364;12.358;2024-01-15T04:37:58;7.50;;;5.30;;
15381;SDS011;7789;51.364;12.358;2024-01-15T04:43:02;8.97;;;5.70;;
15381;SDS011;7789;51.364;12.358;2024-01-15T04:48:06;8.50;;;5.57;;
15381;SDS011;7789;51.364;12.358;2024-01-15T04:53:10;7.60;;;5.37;;
15381;SDS011;7789;51.364;12.358;2024-01-15T04:58:15;8.83;;;5.43;;
15381;SDS011;7789;51.364;12.358;2024-01-15T05:03:19;7.27;;;4.83;;
15381;SDS011;7789;51.364;12.358;2024-01-15T05:08:22;8.47;;;4.97;;
15381;SDS011;7789;51.364;12.358;2024-01-15T05:13:27;7.27;;;5.13;;
15381;SDS011;7789;51.364;12.358;2024-01-15T05:18:31;8.77;;;4.53;;
15381;SDS011;7789;51.364;12.358;2024-01-15T05:23:45;7.93;;;4.87;;
15381;SDS011;7789;51.364;12.358;2024-01-15T05:28:54;7.57;;;4.57;;
15381;SDS011;7789;51.364;12.358;2024-01-15T05:33:58;7.30;;;4.07;;
15381;SDS011;7789;51.364;12.358;2024-01-15T05:39:02;6.40;;;4.03;;
15381;SDS011;7789;51.364;12.358;2024-01-15T05:44:07;8.17;;;4.77;;
15381;SDS011;7789;51.364;12.358;2024-01-15T05:49:11;6.93;;;4.60;;
15381;SDS011;7789;51.364;12.358;2024-01-15T05:54:16;7.60;;;4.40;;
15381;SDS011;7789;51.364;12.358;2024-01-15T05:59:22;6.73;;;4.23;;
15381;SDS011;7789;51.364;12.358;2024-01-15T06:04:27;6.80;;;4.20;;
15381;SDS011;7789;51.364;12.358;2024-01-15T06:15:00;8.43;;;4.23;;
15381;SDS011;7789;51.364;12.358;2024-01-15T06:20:04;8.60;;;3.83;;
15381;SDS011;7789;51.364;12.358;2024-01-15T06:25:09;8.80;;;4.80;;
15381;SDS011;7789;51.364;12.358;2024-01-15T06:30:14;6.27;;;3.80;;
15381;SDS011;7789;51.364;12.358;2024-01-15T06:35:18;5.97;;;3.50;;
15381;SDS011;7789;51.364;12.358;2024-01-15T06:40:24;7.40;;;4.13;;
15381;SDS011;7789;51.364;12.358;2024-01-15T06:45:29;5.63;;;3.80;;
15381;SDS011;7789;51.364;12.358;2024-01-15T06:50:32;5.73;;;4.10;;
15381;SDS011;7789;51.364;12.358;2024-01-15T06:55:36;8.40;;;4.23;;
15381;SDS011;7789;51.364;12.358;2024-01-15T07:00:41;7.27;;;4.30;;
15381;SDS011;7789;51.364;12.358;2024-01-15T07:05:45;6.10;;;3.63;;
15381;SDS011;7789;51.364;12.358;2024-01-15T07:10:48;6.03;;;4.13;;
15381;SDS011;7789;51.364;12.358;2024-01-15T07:15:53;6.63;;;3.73;;
15381;SDS011;7789;51.364;12.358;2024-01-15T07:20:56;7.20;;;3.83;;
15381;SDS011;7789;51.364;12.358;2024-01-15T07:26:00;8.67;;;3.93;;
15381;SDS011;7789;51.364;12.358;2024-01-15T07:31:05;6.27;;;3.93;;
15381;SDS011;7789;51.364;12.358;2024-01-15T07:36:09;6.70;;;4.03;;
15381;SDS011;7789;51.364;12.358;2024-01-15T07:41:13;7.40;;;4.10;;
15381;SDS011;7789;51.364;12.358;2024-01-15T07:46:18;7.07;;;3.87;;
15381;SDS011;7789;51.364;12.358;2024-01-15T07:51:22;9.50;;;4.13;;
15381;SDS011;7789;51.364;12.358;2024-01-15T07:56:25;5.87;;;3.97;;
15381;SDS011;7789;51.364;12.358;2024-01-15T08:01:31;8.00;;;4.20;;
15381;SDS011;7789;51.364;12.358;2024-01-15T08:06:35;7.00;;;3.93;;
15381;SDS011;7789;51.364;12.358;2024-01-15T08:11:39;7.60;;;3.87;;
15381;SDS011;7789;51.364;12.358;2024-01-15T08:16:44;7.63;;;4.30;;
15381;SDS011;7789;51.364;12.358;2024-01-15T08:21:48;6.33;;;4.17;;
15381;SDS011;7789;51.364;12.358;2024-01-15T08:26:51;8.37;;;4.00;;
15381;SDS011;7789;51.364;12.358;2024-01-15T08:31:57;6.70;;;3.30;;
15381;SDS011;7789;51.364;12.358;2024-01-15T08:37:01;6.40;;;3.73;;
15381;SDS011;7789;51.364;12.358;2024-01-15T08:42:04;7.17;;;3.90;;
15381;SDS011;7789;51.364;12.358;2024-01-15T08:47:09;9.37;;;4.23;;
15381;SDS011;7789;51.364;12.358;2024-01-15T08:52:13;9.03;;;3.93;;
15381;SDS011;7789;51.364;12.358;2024-01-15T08:57:16;7.03;;;3.60;;
15381;SDS011;7789;51.364;12.358;2024-01-15T09:02:21;6.27;;;4.40;;
15381;SDS011;7789;51.364;12.358;2024-01-15T09:07:25;4.73;;;3.33;;
15381;SDS011;7789;51.364;12.358;2024-01-15T09:12:29;7.33;;;4.43;;
15381;SDS011;7789;51.364;12.358;2024-01-15T09:17:33;6.70;;;3.40;;
15381;SDS011;7789;51.364;12.358;2024-01-15T09:22:37;4.80;;;3.40;;
15381;SDS011;7789;51.364;12.358;2024-01-15T09:27:42;6.07;;;3.77;;
15381;SDS011;7789;51.364;12.358;2024-01-15T09:32:47;8.60;;;3.77;;
15381;SDS011;7789;51.364;12.358;2024-01-15T09:37:52;7.13;;;3.93;;
15381;SDS011;7789;51.364;12.358;2024-01-15T09:42:55;6.30;;;3.83;;
15381;SDS011;7789;51.364;12.358;2024-01-15T09:48:00;10.07;;;4.17;;
15381;SDS011;7789;51.364;12.358;2024-01-15T09:53:04;5.53;;;3.73;;
15381;SDS011;7789;51.364;12.358;2024-01-15T09:58:08;7.17;;;3.80;;
15381;SDS011;7789;51.364;12.358;2024-01-15T10:03:15;8.67;;;3.90;;
15381;SDS011;7789;51.364;12.358;2024-01-15T10:08:18;7.50;;;3.60;;
15381;SDS011;7789;51.364;12.358;2024-01-15T10:13:22;7.57;;;4.00;;
15381;SDS011;7789;51.364;12.358;2024-01-15T10:18:27;7.67;;;3.73;;
15381;SDS011;7789;51.364;12.358;2024-01-15T10:23:31;7.60;;;3.80;;
15381;SDS011;7789;51.364;12.358;2024-01-15T10:28:35;5.93;;;3.50;;
15381;SDS011;7789;51.364;12.358;2024-01-15T10:33:40;6.30;;;3.90;;
15381;SDS011;7789;51.364;12.358;2024-01-15T10:38:43;10.87;;;4.63;;
15381;SDS011;7789;51.364;12.358;2024-01-15T10:43:47;8.43;;;3.87;;
15381;SDS011;7789;51.364;12.358;2024-01-15T10:48:55;6.73;;;3.53;;
15381;SDS011;7789;51.364;12.358;2024-01-15T10:53:59;7.20;;;4.07;;
15381;SDS011;7789;51.364;12.358;2024-01-15T10:59:04;9.13;;;5.03;;
15381;SDS011;7789;51.364;12.358;2024-01-15T11:04:11;9.30;;;4.10;;
15381;SDS011;7789;51.364;12.358;2024-01-15T11:09:14;5.30;;;3.83;;
15381;SDS011;7789;51.364;12.358;2024-01-15T11:14:35;6.17;;;3.73;;
15381;SDS011;7789;51.364;12.358;2024-01-15T11:19:46;7.03;;;4.47;;
15381;SDS011;7789;51.364;12.358;2024-01-15T11:24:54;7.87;;;3.90;;
15381;SDS011;7789;51.364;12.358;2024-01-15T11:30:02;8.47;;;4.73;;
15381;SDS011;7789;51.364;12.358;2024-01-15T11:35:08;7.77;;;4.70;;
15381;SDS011;7789;51.364;12.358;2024-01-15T11:40:13;7.77;;;4.27;;
15381;SDS011;7789;51.364;12.358;2024-01-15T11:45:21;10.03;;;4.73;;
15381;SDS011;7789;51.364;12.358;2024-01-15T11:50:28;9.47;;;4.90;;
15381;SDS011;7789;51.364;12.358;2024-01-15T11:55:34;7.40;;;4.03;;
15381;SDS011;7789;51.364;12.358;2024-01-15T12:00:42;9.10;;;4.87;;
15381;SDS011;7789;51.364;12.358;2024-01-15T12:05:48;7.67;;;4.77;;
15381;SDS011;7789;51.364;12.358;2024-01-15T12:10:56;7.23;;;4.53;;
15381;SDS011;7789;51.364;12.358;2024-01-15T12:16:04;5.53;;;3.67;;
15381;SDS011;7789;51.364;12.358;2024-01-15T12:21:11;6.53;;;4.10;;
15381;SDS011;7789;51.364;12.358;2024-01-15T12:26:15;5.67;;;4.23;;
15381;SDS011;7789;51.364;12.358;2024-01-15T12:31:20;15.53;;;4.20;;
15381;SDS011;7789;51.364;12.358;2024-01-15T12:36:24;5.60;;;3.90;;
15381;SDS011;7789;51.364;12.358;2024-01-15T12:41:29;6.47;;;3.90;;
15381;SDS011;7789;51.364;12.358;2024-01-15T12:46:32;7.23;;;3.67;;
15381;SDS011;7789;51.364;12.358;2024-01-15T12:51:37;5.00;;;3.50;;
15381;SDS011;7789;51.364;12.358;2024-01-15T12:56:41;7.10;;;3.87;;
15381;SDS011;7789;51.364;12.358;2024-01-15T13:01:44;5.60;;;3.60;;
15381;SDS011;7789;51.364;12.358;2024-01-15T13:06:51;7.27;;;3.67;;
15381;SDS011;7789;51.364;12.358;2024-01-15T13:11:55;7.47;;;4.10;;
15381;SDS011;7789;51.364;12.358;2024-01-15T13:16:59;7.57;;;4.03;;
15381;SDS011;7789;51.364;12.358;2024-01-15T13:22:05;8.03;;;4.33;;
15381;SDS011;7789;51.364;12.358;2024-01-15T13:27:11;6.23;;;3.37;;
15381;SDS011;7789;51.364;12.358;2024-01-15T13:32:15;7.20;;;3.33;;
15381;SDS011;7789;51.364;12.358;2024-01-15T13:37:24;5.40;;;3.10;;
15381;SDS011;7789;51.364;12.358;2024-01-15T13:42:28;6.43;;;3.00;;
15381;SDS011;7789;51.364;12.358;2024-01-15T13:47:31;5.70;;;3.40;;
15381;SDS011;7789;51.364;12.358;2024-01-15T13:52:36;5.43;;;3.60;;
15381;SDS011;7789;51.364;12.358;2024-01-15T13:57:40;5.93;;;3.47;;
15381;SDS011;7789;51.364;12.358;2024-01-15T14:02:44;5.37;;;3.13;;
15381;SDS011;7789;51.364;12.358;2024-01-15T14:07:49;3.93;;;2.93;;
15381;SDS011;7789;51.364;12.358;2024-01-15T14:12:53;5.13;;;3.20;;
15381;SDS011;7789;51.364;12.358;2024-01-15T14:17:57;3.53;;;2.70;;
15381;SDS011;7789;51.364;12.358;2024-01-15T14:23:02;4.10;;;3.07;;
15381;SDS011;7789;51.364;12.358;2024-01-15T14:28:06;3.87;;;2.57;;
15381;SDS011;7789;51.364;12.358;2024-01-15T14:33:12;3.70;;;2.77;;
15381;SDS011;7789;51.364;12.358;2024-01-15T14:38:17;5.63;;;3.20;;
15381;SDS011;7789;51.364;12.358;2024-01-15T14:43:20;5.43;;;3.33;;
15381;SDS011;7789;51.364;12.358;2024-01-15T14:48:24;4.53;;;2.90;;
15381;SDS011;7789;51.364;12.358;2024-01-15T14:53:29;5.73;;;3.30;;
15381;SDS011;7789;51.364;12.358;2024-01-15T14:58:32;6.33;;;3.40;;
15381;SDS011;7789;51.364;12.358;2024-01-15T15:03:36;5.27;;;3.13;;
15381;SDS011;7789;51.364;12.358;2024-01-15T15:08:42;4.67;;;2.90;;
15381;SDS011;7789;51.364;12.358;2024-01-15T15:13:49;4.57;;;3.33;;
15381;SDS011;7789;51.364;12.358;2024-01-15T15:18:52;5.07;;;2.87;;
15381;SDS011;7789;51.364;12.358;2024-01-15T15:23:58;6.43;;;2.90;;
15381;SDS011;7789;51.364;12.358;2024-01-15T15:29:02;3.53;;;2.60;;
15381;SDS011;7789;51.364;12.358;2024-01-15T15:34:10;4.13;;;3.00;;
15381;SDS011;7789;51.364;12.358;2024-01-15T15:39:15;5.07;;;3.13;;
15381;SDS011;7789;51.364;12.358;2024-01-15T15:44:20;5.70;;;3.33;;
15381;SDS011;7789;51.364;12.358;2024-01-15T15:49:28;4.93;;;3.40;;
15381;SDS011;7789;51.364;12.358;2024-01-15T15:54:34;4.60;;;3.20;;
15381;SDS011;7789;51.364;12.358;2024-01-15T15:59:37;4.50;;;2.73;;
15381;SDS011;7789;51.364;12.358;2024-01-15T16:04:41;6.60;;;3.37;;
15381;SDS011;7789;51.364;12.358;2024-01-15T16:09:46;6.67;;;4.47;;
15381;SDS011;7789;51.364;12.358;2024-01-15T16:14:50;5.97;;;4.20;;
15381;SDS011;7789;51.364;12.358;2024-01-15T16:19:53;7.27;;;4.47;;
15381;SDS011;7789;51.364;12.358;2024-01-15T16:25:18;6.00;;;4.03;;
15381;SDS011;7789;51.364;12.358;2024-01-15T16:30:22;5.13;;;3.87;;
15381;SDS011;7789;51.364;12.358;2024-01-15T16:35:39;6.67;;;4.43;;
15381;SDS011;7789;51.364;12.358;2024-01-15T16:40:44;7.10;;;4.53;;
15381;SDS011;7789;51.364;12.358;2024-01-15T16:45:48;4.50;;;3.23;;
15381;SDS011;7789;51.364;12.358;2024-01-15T16:50:52;5.60;;;3.57;;
15381;SDS011;7789;51.364;12.358;2024-01-15T16:55:58;5.60;;;3.83;;
15381;SDS011;7789;51.364;12.358;2024-01-15T17:01:02;5.97;;;3.50;;
15381;SDS011;7789;51.364;12.358;2024-01-15T17:06:06;5.13;;;3.00;;
15381;SDS011;7789;51.364;12.358;2024-01-15T17:11:12;3.97;;;2.80;;
15381;SDS011;7789;51.364;12.358;2024-01-15T17:16:16;4.03;;;2.60;;
15381;SDS011;7789;51.364;12.358;2024-01-15T17:21:19;5.27;;;2.30;;
15381;SDS011;7789;51.364;12.358;2024-01-15T17:26:25;6.10;;;3.07;;
15381;SDS011;7789;51.364;12.358;2024-01-15T17:31:29;5.53;;;2.97;;
15381;SDS011;7789;51.364;12.358;2024-01-15T17:36:33;4.43;;;2.47;;
15381;SDS011;7789;51.364;12.358;2024-01-15T17:41:38;5.10;;;2.50;;
15381;SDS011;7789;51.364;12.358;2024-01-15T17:46:42;5.37;;;2.70;;
15381;SDS011;7789;51.364;12.358;2024-01-15T17:51:46;3.83;;;2.67;;
15381;SDS011;7789;51.364;12.358;2024-01-15T17:56:51;5.90;;;2.93;;
15381;SDS011;7789;51.364;12.358;2024-01-15T18:01:55;5.40;;;3.00;;
15381;SDS011;7789;51.364;12.358;2024-01-15T18:06:59;5.70;;;3.27;;
15381;SDS011;7789;51.364;12.358;2024-01-15T18:12:06;5.90;;;3.03;;
15381;SDS011;7789;51.364;12.358;2024-01-15T18:17:14;4.60;;;2.90;;
15381;SDS011;7789;51.364;12.358;2024-01-15T18:22:17;4.80;;;2.97;;
15381;SDS011;7789;51.364;12.358;2024-01-15T18:27:24;5.20;;;2.87;;
15381;SDS011;7789;51.364;12.358;2024-01-15T18:32:29;6.57;;;3.30;;
15381;SDS011;7789;51.364;12.358;2024-01-15T18:37:33;4.07;;;2.60;;
15381;SDS011;7789;51.364;12.358;2024-01-15T18:42:41;4.97;;;2.90;;
15381;SDS011;7789;51.364;12.358;2024-01-15T18:47:48;4.20;;;2.30;;
15381;SDS011;7789;51.364;12.358;2024-01-15T18:52:52;7.60;;;2.50;;
15381;SDS011;7789;51.364;12.358;2024-01-15T18:57:58;3.97;;;2.40;;
15381;SDS011;7789;51.364;12.358;2024-01-15T19:03:03;5.47;;;2.10;;
15381;SDS011;7789;51.364;12.358;2024-01-15T19:08:19;2.53;;;2.27;;
15381;SDS011;7789;51.364;12.358;2024-01-15T19:13:24;5.20;;;2.53;;
15381;SDS011;7789;51.364;12.358;2024-01-15T19:18:28;6.97;;;2.70;;
15381;SDS011;7789;51.364;12.358;2024-01-15T19:23:33;3.10;;;2.43;;
15381;SDS011;7789;51.364;12.358;2024-01-15T19:28:41;3.93;;;2.70;;
15381;SDS011;7789;51.364;12.358;2024-01-15T19:33:56;4.20;;;2.97;;
15381;SDS011;7789;51.364;12.358;2024-01-15T19:39:07;4.40;;;2.60;;
15381;SDS011;7789;51.364;12.358;2024-01-15T19:44:15;3.60;;;2.37;;
15381;SDS011;7789;51.364;12.358;2024-01-15T19:49:24;4.83;;;2.90;;
15381;SDS011;7789;51.364;12.358;2024-01-15T19:54:33;4.00;;;2.80;;
15381;SDS011;7789;51.364;12.358;2024-01-15T19:59:46;2.77;;;2.17;;
15381;SDS011;7789;51.364;12.358;2024-01-15T20:04:50;3.10;;;2.20;;
15381;SDS011;7789;51.364;12.358;2024-01-15T20:09:58;2.93;;;2.50;;
15381;SDS011;7789;51.364;12.358;2024-01-15T20:15:04;2.10;;;1.80;;
15381;SDS011;7789;51.364;12.358;2024-01-15T20:20:12;2.17;;;1.80;;
15381;SDS011;7789;51.364;12.358;2024-01-15T20:25:17;2.40;;;1.80;;
15381;SDS011;7789;51.364;12.358;2024-01-15T20:30:22;3.27;;;2.10;;
15381;SDS011;7789;51.364;12.358;2024-01-15T20:35:25;2.70;;;2.10;;
15381;SDS011;7789;51.364;12.358;2024-01-15T20:40:31;2.90;;;1.97;;
15381;SDS011;7789;51.364;12.358;2024-01-15T20:45:37;3.17;;;1.97;;
15381;SDS011;7789;51.364;12.358;2024-01-15T20:50:42;3.53;;;2.03;;
15381;SDS011;7789;51.364;12.358;2024-01-15T20:55:46;2.00;;;1.80;;
15381;SDS011;7789;51.364;12.358;2024-01-15T21:00:51;2.13;;;1.40;;
15381;SDS011;7789;51.364;12.358;2024-01-15T21:05:56;2.17;;;1.60;;
15381;SDS011;7789;51.364;12.358;2024-01-15T21:11:00;2.27;;;1.20;;
15381;SDS011;7789;51.364;12.358;2024-01-15T21:16:10;5.83;;;1.50;;
15381;SDS011;7789;51.364;12.358;2024-01-15T21:21:14;6.53;;;1.67;;
15381;SDS011;7789;51.364;12.358;2024-01-15T21:26:17;1.97;;;0.90;;
15381;SDS011;7789;51.364;12.358;2024-01-15T21:31:22;6.30;;;1.47;;
15381;SDS011;7789;51.364;12.358;2024-01-15T21:36:26;5.07;;;1.20;;
15381;SDS011;7789;51.364;12.358;2024-01-15T21:41:30;3.00;;;1.07;;
15381;SDS011;7789;51.364;12.358;2024-01-15T21:46:40;5.93;;;1.27;;
15381;SDS011;7789;51.364;12.358;2024-01-15T21:51:43;5.43;;;1.10;;
15381;SDS011;7789;51.364;12.358;2024-01-15T21:56:49;5.80;;;1.30;;
15381;SDS011;7789;51.364;12.358;2024-01-15T22:02:00;5.30;;;1.40;;
15381;SDS011;7789;51.364;12.358;2024-01-15T22:07:10;6.23;;;1.10;;
15381;SDS011;7789;51.364;12.358;2024-01-15T22:12:13;4.87;;;0.97;;
15381;SDS011;7789;51.364;12.358;2024-01-15T22:17:18;5.30;;;1.37;;
15381;SDS011;7789;51.364;12.358;2024-01-15T22:22:22;3.60;;;0.93;;
15381;SDS011;7789;51.364;12.358;2024-01-15T22:27:25;3.13;;;1.10;;
15381;SDS011;7789;51.364;12.358;2024-01-15T22:32:30;3.90;;;1.30;;
15381;SDS011;7789;51.364;12.358;2024-01-15T22:37:35;4.80;;;1.20;;
15381;SDS011;7789;51.364;12.358;2024-01-15T22:42:39;3.20;;;1.10;;
15381;SDS011;7789;51.364;12.358;2024-01-15T22:47:44;4.53;;;1.00;;
15381;SDS011;7789;51.364;12.358;2024-01-15T22:52:48;4.93;;;1.30;;
15381;SDS011;7789;51.364;12.358;2024-01-15T22:57:52;3.60;;;1.00;;
15381;SDS011;7789;51.364;12.358;2024-01-15T23:02:57;6.60;;;1.70;;
15381;SDS011;7789;51.364;12.358;2024-01-15T23:08:03;3.57;;;1.03;;
15381;SDS011;7789;51.364;12.358;2024-01-15T23:13:06;4.70;;;1.33;;
15381;SDS011;7789;51.364;12.358;2024-01-15T23:18:12;3.37;;;1.70;;
15381;SDS011;7789;51.364;12.358;2024-01-15T23:23:16;5.33;;;1.10;;
15381;SDS011;7789;51.364;12.358;2024-01-15T23:28:19;2.23;;;1.07;;
15381;SDS011;7789;51.364;12.358;2024-01-15T23:33:24;3.87;;;1.50;;
15381;SDS011;7789;51.364;12.358;2024-01-15T23:38:28;3.43;;;1.37;;
15381;SDS011;7789;51.364;12.358;2024-01-15T23:43:32;4.37;;;1.60;;
15381;SDS011;7789;51.364;12.358;2024-01-15T23:48:38;3.23;;;1.20;;
15381;SDS011;7789;51.364;12.358;2024-01-15T23:53:41;3.63;;;1.47;;
15381;SDS011;7789;51.364;12.358;2024-01-15T23:58:45;5.17;;;2.10;;
